createdAt,value
2023-01-09T00:01:28.213Z,99630.16
2023-01-09T00:03:54.744Z,99636.91
2023-01-09T00:06:22.167Z,99628.19
2023-01-09T00:08:48.705Z,99628.19
2023-01-09T00:11:15.218Z,99631.81
2023-01-09T00:16:25.724Z,99632.22
2023-01-09T00:18:53.158Z,99630.47
2023-01-09T00:21:19.680Z,99625.78
2023-01-09T00:23:46.164Z,99617.88
2023-01-09T00:26:12.739Z,99615.84
2023-01-09T00:31:23.379Z,99623.81
2023-01-09T00:33:49.851Z,99637.72
2023-01-09T00:36:16.331Z,99638.88
2023-01-09T00:38:42.818Z,99631.75
2023-01-09T00:41:09.285Z,99639.31
2023-01-09T00:46:29.602Z,99640.00
2023-01-09T00:48:57.060Z,99640.06
2023-01-09T00:51:23.548Z,99645.56
2023-01-09T00:53:50.038Z,99644.03
2023-01-09T00:56:16.515Z,99644.03
2023-01-09T01:01:28.028Z,99620.22
2023-01-09T01:03:55.475Z,99616.69
2023-01-09T01:06:22.888Z,99610.31
2023-01-09T01:08:50.256Z,99600.38
2023-01-09T01:11:17.652Z,99588.84
2023-01-09T01:16:39.334Z,99567.06
2023-01-09T01:19:06.771Z,99569.41
2023-01-09T01:21:33.248Z,99580.56
2023-01-09T01:23:59.710Z,99585.28
2023-01-09T01:26:27.137Z,99580.88
2023-01-09T01:31:39.266Z,99578.16
2023-01-09T01:34:06.641Z,99577.75
2023-01-09T01:36:33.117Z,99565.34
2023-01-09T01:38:59.588Z,99565.81
2023-01-09T01:41:26.130Z,99573.75
2023-01-09T01:46:36.733Z,99573.31
2023-01-09T01:49:03.199Z,99569.78
2023-01-09T01:51:29.708Z,99573.75
2023-01-09T01:53:57.151Z,99564.31
2023-01-09T01:56:24.518Z,99570.19
2023-01-09T02:01:35.503Z,99577.75
2023-01-09T02:04:02.941Z,99580.56
2023-01-09T02:06:30.292Z,99581.34
2023-01-09T02:08:56.752Z,99578.56
2023-01-09T02:11:24.081Z,99584.38
2023-01-09T02:13:51.460Z,99579.59
2023-01-09T02:16:18.945Z,99573.63
2023-01-09T02:18:46.315Z,99569.78
2023-01-09T02:21:12.797Z,99577.28
2023-01-09T02:23:40.127Z,99586.44
2023-01-09T02:26:06.606Z,99578.47
2023-01-09T02:28:33.054Z,99576.81
2023-01-09T02:31:00.404Z,99579.66
2023-01-09T02:33:26.876Z,99570.13
2023-01-09T02:35:54.310Z,99573.69
2023-01-09T02:38:21.656Z,99566.94
2023-01-09T02:40:48.123Z,99566.56
2023-01-09T02:43:14.601Z,99570.13
2023-01-09T02:45:41.132Z,99561.44
2023-01-09T02:48:08.465Z,99565.41
2023-01-09T02:50:35.770Z,99559.78
2023-01-09T02:53:02.218Z,99566.88
2023-01-09T02:55:28.680Z,99567.72
2023-01-09T02:57:55.176Z,99571.31
2023-01-09T03:00:21.642Z,99571.72
2023-01-09T03:02:48.927Z,99564.94
2023-01-09T03:05:15.439Z,99553.47
2023-01-09T03:07:41.912Z,99545.84
2023-01-09T03:10:09.340Z,99534.00
2023-01-09T03:12:35.805Z,99535.13
2023-01-09T03:15:03.184Z,99532.50
2023-01-09T03:17:29.730Z,99528.88
2023-01-09T03:19:57.061Z,99523.66
2023-01-09T03:22:24.328Z,99538.84
2023-01-09T03:24:50.839Z,99529.97
2023-01-09T03:27:18.209Z,99530.88
2023-01-09T03:29:45.552Z,99522.13
2023-01-09T03:35:06.959Z,99522.53
2023-01-09T03:37:34.333Z,99515.41
2023-01-09T03:40:01.637Z,99509.41
2023-01-09T03:42:29.073Z,99502.72
2023-01-09T03:44:57.463Z,99497.97
2023-01-09T03:50:08.756Z,99486.09
2023-01-09T03:52:36.098Z,99484.91
2023-01-09T03:55:03.476Z,99477.34
2023-01-09T03:57:29.956Z,99471.81
2023-01-09T03:59:57.306Z,99474.94
2023-01-09T04:05:19.577Z,99467.06
2023-01-09T04:07:46.970Z,99469.47
2023-01-09T04:10:13.414Z,99474.25
2023-01-09T04:12:40.704Z,99467.91
2023-01-09T04:15:08.028Z,99469.38
2023-01-09T04:20:18.323Z,99475.41
2023-01-09T04:22:44.785Z,99474.59
2023-01-09T04:25:12.165Z,99469.84
2023-01-09T04:27:39.446Z,99468.63
2023-01-09T04:30:06.768Z,99469.09
2023-01-09T04:35:29.080Z,99467.06
2023-01-09T04:37:56.394Z,99468.59
2023-01-09T04:40:23.712Z,99465.91
2023-01-09T04:42:50.219Z,99464.66
2023-01-09T04:45:16.657Z,99465.84
2023-01-09T04:50:27.227Z,99462.72
2023-01-09T04:52:54.513Z,99466.31
2023-01-09T04:55:20.968Z,99460.28
2023-01-09T04:57:47.438Z,99456.72
2023-01-09T05:00:14.785Z,99455.13
2023-01-09T05:05:37.951Z,99442.50
2023-01-09T05:08:04.534Z,99451.56
2023-01-09T05:10:31.826Z,99449.50
2023-01-09T05:12:59.101Z,99443.56
2023-01-09T05:15:25.620Z,99436.88
2023-01-09T05:20:37.933Z,99439.72
2023-01-09T05:23:05.243Z,99438.91
2023-01-09T05:25:31.767Z,99437.72
2023-01-09T05:28:00.107Z,99436.47
2023-01-09T05:30:27.465Z,99424.47
2023-01-09T05:35:39.549Z,99430.84
2023-01-09T05:38:06.863Z,99426.91
2023-01-09T05:40:40.064Z,99418.22
2023-01-09T05:43:07.986Z,99422.19
2023-01-09T05:45:37.478Z,99415.44
2023-01-09T05:50:49.619Z,99408.13
2023-01-09T05:53:16.137Z,99407.31
2023-01-09T05:55:43.615Z,99403.69
2023-01-09T05:58:10.108Z,99401.75
2023-01-09T06:00:36.680Z,99405.00
2023-01-09T06:05:48.873Z,99407.22
2023-01-09T06:08:15.383Z,99407.22
2023-01-09T06:10:41.846Z,99402.34
2023-01-09T06:13:08.426Z,99399.16
2023-01-09T06:15:34.935Z,99397.66
2023-01-09T06:20:46.519Z,99398.34
2023-01-09T06:23:13.730Z,99400.63
2023-01-09T06:25:41.542Z,99391.59
2023-01-09T06:28:08.081Z,99399.50
2023-01-09T06:30:34.565Z,99403.41
2023-01-09T06:33:02.123Z,99402.97
2023-01-09T06:35:28.651Z,99401.44
2023-01-09T06:37:55.184Z,99406.13
2023-01-09T06:40:21.700Z,99399.84
2023-01-09T06:42:49.089Z,99397.50
2023-01-09T06:45:18.130Z,99402.72
2023-01-09T06:47:44.607Z,99390.00
2023-01-09T06:50:11.333Z,99385.59
2023-01-09T06:52:38.120Z,99386.38
2023-01-09T06:55:04.895Z,99386.09
2023-01-09T06:57:32.590Z,99376.06
2023-01-09T07:00:00.022Z,99373.28
2023-01-09T07:02:27.522Z,99370.50
2023-01-09T07:04:54.968Z,99378.31
2023-01-09T07:07:21.424Z,99376.69
2023-01-09T07:09:47.933Z,99374.41
2023-01-09T07:12:14.421Z,99374.91
2023-01-09T07:14:41.294Z,99371.00
2023-01-09T07:17:08.691Z,99360.75
2023-01-09T07:19:35.158Z,99357.53
2023-01-09T07:22:01.654Z,99357.97
2023-01-09T07:24:28.158Z,99369.16
2023-01-09T07:26:54.716Z,99369.06
2023-01-09T07:29:21.233Z,99370.69
2023-01-09T07:31:48.628Z,99366.38
2023-01-09T07:34:16.056Z,99377.34
2023-01-09T07:36:42.560Z,99370.56
2023-01-09T07:39:09.998Z,99357.81
2023-01-09T07:41:37.583Z,99371.28
2023-01-09T07:44:05.047Z,99362.59
2023-01-09T07:46:31.589Z,99360.94
2023-01-09T07:48:59.087Z,99362.19
2023-01-09T07:54:09.584Z,99354.19
2023-01-09T07:56:37.014Z,99349.31
2023-01-09T07:59:03.564Z,99340.97
2023-01-09T08:01:30.210Z,99343.34
2023-01-09T08:03:56.768Z,99347.19
2023-01-09T08:09:18.498Z,99337.34
2023-01-09T08:11:45.061Z,99342.06
2023-01-09T08:14:12.507Z,99340.47
2023-01-09T08:16:39.004Z,99352.81
2023-01-09T08:19:05.530Z,99344.34
2023-01-09T08:24:16.983Z,99345.09
2023-01-09T08:26:43.467Z,99340.81
2023-01-09T08:29:09.962Z,99340.88
2023-01-09T08:31:37.453Z,99358.13
2023-01-09T08:34:04.005Z,99354.94
2023-01-09T08:39:24.637Z,99334.25
2023-01-09T08:41:51.126Z,99329.00
2023-01-09T08:44:18.567Z,99335.16
2023-01-09T08:46:45.146Z,99322.84
2023-01-09T08:49:11.652Z,99336.72
2023-01-09T08:54:22.066Z,99336.53
2023-01-09T08:56:48.560Z,99328.69
2023-01-09T08:59:15.984Z,99324.97
2023-01-09T09:01:43.496Z,99326.16
2023-01-09T09:04:10.089Z,99325.88
2023-01-09T09:09:21.528Z,99342.00
2023-01-09T09:11:48.271Z,99331.53
2023-01-09T09:14:15.817Z,99328.34
2023-01-09T09:16:42.320Z,99333.94
2023-01-09T09:19:08.836Z,99313.03
2023-01-09T09:24:29.669Z,99306.09
2023-01-09T09:26:56.208Z,99292.47
2023-01-09T09:29:22.725Z,99289.75
2023-01-09T09:31:49.283Z,99281.78
2023-01-09T09:34:15.783Z,99292.16
2023-01-09T09:39:27.163Z,99286.16
2023-01-09T09:41:54.602Z,99295.72
2023-01-09T09:44:21.138Z,99291.81
2023-01-09T09:46:47.681Z,99298.53
2023-01-09T09:49:14.226Z,99293.91
2023-01-09T09:51:40.727Z,99290.03
2023-01-09T09:54:07.412Z,99285.88
2023-01-09T09:56:34.825Z,99284.38
2023-01-09T09:59:02.250Z,99281.19
2023-01-09T10:01:28.765Z,99284.03
2023-01-09T10:03:56.249Z,99278.78
2023-01-09T10:06:22.854Z,99275.75
2023-01-09T10:08:49.396Z,99276.91
2023-01-09T10:11:15.977Z,99266.59
2023-01-09T10:13:42.507Z,99262.84
2023-01-09T10:16:09.091Z,99270.84
2023-01-09T10:18:36.556Z,99264.47
2023-01-09T10:21:04.009Z,99263.75
2023-01-09T10:23:30.542Z,99264.41
2023-01-09T10:25:57.973Z,99267.91
2023-01-09T10:28:24.562Z,99264.00
2023-01-09T10:30:51.102Z,99262.47
2023-01-09T10:33:18.544Z,99263.75
2023-01-09T10:35:47.923Z,99263.75
2023-01-09T10:38:14.824Z,99268.16
2023-01-09T10:40:42.268Z,99264.41
2023-01-09T10:43:08.956Z,99255.84
2023-01-09T10:45:35.523Z,99261.84
2023-01-09T10:48:02.957Z,99251.13
2023-01-09T10:50:30.352Z,99252.66
2023-01-09T10:52:57.800Z,99240.38
2023-01-09T10:55:24.301Z,99243.09
2023-01-09T10:57:50.820Z,99242.63
2023-01-09T11:00:18.291Z,99239.06
2023-01-09T11:02:44.846Z,99238.25
2023-01-09T11:05:12.303Z,99235.97
2023-01-09T11:07:39.812Z,99232.72
2023-01-09T11:12:52.293Z,99221.94
2023-01-09T11:15:18.822Z,99223.22
2023-01-09T11:17:45.369Z,99220.13
2023-01-09T11:20:13.576Z,99208.16
2023-01-09T11:22:40.247Z,99200.63
2023-01-09T11:28:00.893Z,99197.22
2023-01-09T11:30:27.412Z,99194.44
2023-01-09T11:32:53.903Z,99192.75
2023-01-09T11:35:21.335Z,99185.28
2023-01-09T11:37:47.833Z,99186.13
2023-01-09T11:43:09.535Z,99172.03
2023-01-09T11:45:36.067Z,99169.50
2023-01-09T11:48:03.393Z,99176.78
2023-01-09T11:50:29.865Z,99176.09
2023-01-09T11:52:58.277Z,99167.31
2023-01-09T11:58:19.597Z,99165.31
2023-01-09T12:00:46.087Z,99164.25
2023-01-09T12:03:13.504Z,99156.72
2023-01-09T12:05:40.154Z,99155.84
2023-01-09T12:08:06.658Z,99145.53
2023-01-09T12:13:17.287Z,99142.75
2023-01-09T12:15:43.742Z,99135.56
2023-01-09T12:18:11.174Z,99132.00
2023-01-09T12:20:37.653Z,99128.88
2023-01-09T12:23:05.235Z,99126.44
2023-01-09T12:28:25.672Z,99132.41
2023-01-09T12:30:53.043Z,99129.22
2023-01-09T12:33:21.398Z,99123.16
2023-01-09T12:35:47.957Z,99132.00
2023-01-09T12:38:15.292Z,99118.91
2023-01-09T12:43:36.831Z,99122.38
2023-01-09T12:46:03.385Z,99118.91
2023-01-09T12:48:30.694Z,99127.66
2023-01-09T12:50:57.239Z,99120.88
2023-01-09T12:53:24.518Z,99129.63
2023-01-09T12:58:35.965Z,99124.16
2023-01-09T13:01:03.359Z,99119.34
2023-01-09T13:03:29.938Z,99127.94
2023-01-09T13:05:56.484Z,99112.47
2023-01-09T13:08:23.799Z,99112.91
2023-01-09T13:13:45.436Z,99107.81
2023-01-09T13:16:12.826Z,99105.72
2023-01-09T13:18:39.376Z,99093.75
2023-01-09T13:21:05.887Z,99094.25
2023-01-09T13:23:33.361Z,99091.50
2023-01-09T13:28:45.858Z,99093.31
2023-01-09T13:31:12.433Z,99085.44
2023-01-09T13:33:39.002Z,99087.31
2023-01-09T13:36:06.461Z,99081.00
2023-01-09T13:38:33.031Z,99080.22
2023-01-09T13:43:43.831Z,99070.66
2023-01-09T13:46:10.389Z,99079.88
2023-01-09T13:48:37.810Z,99077.88
2023-01-09T13:51:05.265Z,99073.44
2023-01-09T13:53:32.684Z,99069.38
2023-01-09T13:58:54.763Z,99076.84
2023-01-09T14:01:22.307Z,99074.56
2023-01-09T14:03:48.843Z,99075.81
2023-01-09T14:06:16.333Z,99079.34
2023-01-09T14:08:42.946Z,99069.44
2023-01-09T14:11:09.558Z,99077.44
2023-01-09T14:13:36.913Z,99073.47
2023-01-09T14:16:03.429Z,99075.47
2023-01-09T14:18:30.800Z,99071.88
2023-01-09T14:20:57.364Z,99071.09
2023-01-09T14:23:45.619Z,99072.69
2023-01-09T14:26:11.318Z,99074.56
2023-01-09T14:28:38.743Z,99075.00
2023-01-09T14:31:05.249Z,99074.94
2023-01-09T14:33:32.594Z,99074.50
2023-01-09T14:35:59.961Z,99069.81
2023-01-09T14:38:26.480Z,99074.13
2023-01-09T14:40:53.859Z,99066.47
2023-01-09T14:43:20.508Z,99083.22
2023-01-09T14:45:49.123Z,99070.97
2023-01-09T14:48:17.241Z,99085.31
2023-01-09T14:50:43.766Z,99085.63
2023-01-09T14:53:10.309Z,99092.31
2023-01-09T14:55:37.752Z,99094.31
2023-01-09T14:58:05.190Z,99099.78
2023-01-09T15:00:33.373Z,99095.28
2023-01-09T15:02:59.819Z,99094.41
2023-01-09T15:05:27.170Z,99101.44
2023-01-09T15:07:54.612Z,99096.31
2023-01-09T15:10:21.196Z,99097.34
2023-01-09T15:12:47.673Z,99099.00
2023-01-09T15:15:14.126Z,99093.47
2023-01-09T15:17:41.547Z,99096.91
2023-01-09T15:20:08.082Z,99095.91
2023-01-09T15:22:34.605Z,99101.38
2023-01-09T15:25:01.922Z,99102.66
2023-01-09T15:27:28.370Z,99108.66
2023-01-09T15:29:54.852Z,99115.69
2023-01-09T15:32:22.154Z,99118.13
2023-01-09T15:34:48.598Z,99116.47
2023-01-09T15:37:15.072Z,99114.81
2023-01-09T15:39:41.566Z,99110.13
2023-01-09T15:42:09.004Z,99112.38
2023-01-09T15:47:30.183Z,99124.38
2023-01-09T15:49:56.835Z,99121.22
2023-01-09T15:52:24.183Z,99122.09
2023-01-09T15:54:51.470Z,99123.22
2023-01-09T15:57:18.739Z,99123.47
2023-01-09T16:02:29.864Z,99118.81
2023-01-09T16:04:57.186Z,99116.19
2023-01-09T16:07:23.631Z,99116.38
2023-01-09T16:09:50.042Z,99115.84
2023-01-09T16:12:16.524Z,99114.44
2023-01-09T16:17:28.781Z,99115.16
2023-01-09T16:19:55.248Z,99119.84
2023-01-09T16:22:24.447Z,99115.94
2023-01-09T16:24:52.747Z,99127.31
2023-01-09T16:27:20.092Z,99132.63
2023-01-09T16:32:40.476Z,99133.91
2023-01-09T16:35:07.763Z,99125.56
2023-01-09T16:37:35.089Z,99125.13
2023-01-09T16:40:02.355Z,99133.66
2023-01-09T16:42:29.698Z,99132.28
2023-01-09T16:47:50.600Z,99130.59
2023-01-09T16:50:17.961Z,99146.25
2023-01-09T16:52:45.905Z,99144.16
2023-01-09T16:55:14.538Z,99148.19
2023-01-09T16:57:41.868Z,99148.50
2023-01-09T17:02:53.264Z,99150.41
2023-01-09T17:05:19.751Z,99152.84
2023-01-09T17:07:47.044Z,99154.84
2023-01-09T17:10:13.493Z,99157.88
2023-01-09T17:12:39.988Z,99165.44
2023-01-09T17:18:02.231Z,99166.31
2023-01-09T17:20:29.686Z,99155.81
2023-01-09T17:22:56.155Z,99167.72
2023-01-09T17:25:23.531Z,99169.09
2023-01-09T17:27:50.925Z,99168.13
2023-01-09T17:33:02.127Z,99173.53
2023-01-09T17:35:29.551Z,99176.91
2023-01-09T17:37:56.079Z,99188.56
2023-01-09T17:40:22.541Z,99181.19
2023-01-09T17:42:49.876Z,99184.22
2023-01-09T17:48:11.215Z,99176.81
2023-01-09T17:50:37.716Z,99178.41
2023-01-09T17:53:05.123Z,99181.59
2023-01-09T17:55:32.489Z,99189.00
2023-01-09T17:57:58.964Z,99186.72
2023-01-09T18:03:20.456Z,99197.00
2023-01-09T18:05:47.114Z,99189.00
2023-01-09T18:08:13.619Z,99194.66
2023-01-09T18:10:40.933Z,99200.03
2023-01-09T18:13:07.374Z,99202.19
2023-01-09T18:18:18.686Z,99203.59
2023-01-09T18:20:46.005Z,99189.84
2023-01-09T18:23:12.629Z,99187.41
2023-01-09T18:25:39.055Z,99194.22
2023-01-09T18:28:05.498Z,99200.53
2023-01-09T18:33:27.239Z,99211.06
2023-01-09T18:35:53.942Z,99213.50
2023-01-09T18:38:21.265Z,99220.94
2023-01-09T18:40:48.547Z,99219.84
2023-01-09T18:43:14.995Z,99212.09
2023-01-09T18:48:25.415Z,99218.84
2023-01-09T18:50:51.828Z,99225.13
2023-01-09T18:53:18.265Z,99214.09
2023-01-09T18:55:45.573Z,99216.00
2023-01-09T18:58:12.924Z,99220.44
2023-01-09T19:00:40.247Z,99228.78
2023-01-09T19:03:06.729Z,99238.88
2023-01-09T19:05:33.392Z,99242.69
2023-01-09T19:08:00.698Z,99244.50
2023-01-09T19:10:27.951Z,99243.03
2023-01-09T19:12:54.383Z,99247.28
2023-01-09T19:15:20.828Z,99238.78
2023-01-09T19:17:47.281Z,99235.09
2023-01-09T19:20:13.728Z,99245.88
2023-01-09T19:22:40.175Z,99252.59
2023-01-09T19:25:06.815Z,99260.22
2023-01-09T19:27:33.235Z,99267.09
2023-01-09T19:30:00.535Z,99264.22
2023-01-09T19:32:26.988Z,99263.00
2023-01-09T19:34:53.431Z,99271.75
2023-01-09T19:37:20.844Z,99280.09
2023-01-09T19:39:48.220Z,99280.31
2023-01-09T19:42:14.767Z,99277.31
2023-01-09T19:44:42.120Z,99265.19
2023-01-09T19:47:09.460Z,99275.44
2023-01-09T19:49:35.945Z,99285.78
2023-01-09T19:52:03.341Z,99286.13
2023-01-09T19:54:30.727Z,99292.97
2023-01-09T19:56:58.080Z,99294.47
2023-01-09T19:59:25.465Z,99292.63
2023-01-09T20:01:52.065Z,99291.59
2023-01-09T20:04:19.515Z,99281.25
2023-01-09T20:06:46.882Z,99292.03
2023-01-09T20:09:13.338Z,99287.16
2023-01-09T20:11:40.655Z,99309.88
2023-01-09T20:14:07.275Z,99301.88
2023-01-09T20:16:34.603Z,99315.13
2023-01-09T20:21:45.873Z,99313.84
2023-01-09T20:24:12.325Z,99323.13
2023-01-09T20:26:38.727Z,99329.38
2023-01-09T20:29:06.047Z,99333.47
2023-01-09T20:31:34.375Z,99334.22
2023-01-09T20:36:46.881Z,99333.78
2023-01-09T20:39:13.370Z,99340.66
2023-01-09T20:41:40.132Z,99343.00
2023-01-09T20:44:06.945Z,99346.34
2023-01-09T20:46:33.447Z,99358.56
2023-01-09T20:51:54.977Z,99364.03
2023-01-09T20:54:21.742Z,99362.91
2023-01-09T20:56:48.264Z,99357.78
2023-01-09T20:59:15.696Z,99360.72
2023-01-09T21:01:42.167Z,99372.44
2023-01-09T21:07:23.194Z,99381.19
2023-01-09T21:09:49.672Z,99382.88
2023-01-09T21:12:17.033Z,99387.53
2023-01-09T21:14:43.526Z,99390.25
2023-01-09T21:17:10.013Z,99404.91
2023-01-09T21:22:30.534Z,99414.06
2023-01-09T21:24:56.985Z,99426.06
2023-01-09T21:27:23.475Z,99421.44
2023-01-09T21:29:50.109Z,99417.44
2023-01-09T21:32:16.571Z,99436.75
2023-01-09T21:37:27.178Z,99430.25
2023-01-09T21:39:53.668Z,99441.31
2023-01-09T21:42:21.094Z,99429.75
2023-01-09T21:44:48.479Z,99436.56
2023-01-09T21:47:15.873Z,99438.09
2023-01-09T21:52:27.208Z,99464.00
2023-01-09T21:54:53.697Z,99469.97
2023-01-09T21:57:20.330Z,99466.38
2023-01-09T21:59:46.824Z,99468.38
2023-01-09T22:02:13.311Z,99473.56
2023-01-09T22:07:34.724Z,99478.69
2023-01-09T22:10:01.740Z,99482.03
2023-01-09T22:12:28.371Z,99479.38
2023-01-09T22:14:54.841Z,99480.19
2023-01-09T22:17:21.370Z,99487.22
2023-01-09T22:22:32.911Z,99496.34
2023-01-09T22:24:59.367Z,99500.28
2023-01-09T22:27:26.747Z,99498.53
2023-01-09T22:29:54.133Z,99504.56
2023-01-09T22:32:21.532Z,99498.94
2023-01-09T22:37:43.108Z,99496.47
2023-01-09T22:40:09.763Z,99499.25
2023-01-09T22:42:37.165Z,99504.38
2023-01-09T22:45:04.547Z,99504.75
2023-01-09T22:47:31.948Z,99506.81
2023-01-09T22:52:43.190Z,99505.53
2023-01-09T22:55:10.625Z,99508.81
2023-01-09T22:57:38.069Z,99522.25
2023-01-09T23:00:05.482Z,99506.81
2023-01-09T23:02:32.010Z,99515.63
2023-01-09T23:04:59.435Z,99504.09
2023-01-09T23:07:25.897Z,99506.81
2023-01-09T23:09:53.242Z,99504.50
2023-01-09T23:12:20.613Z,99523.88
2023-01-09T23:14:47.127Z,99517.56
2023-01-09T23:17:13.565Z,99519.59
2023-01-09T23:19:40.001Z,99520.41
2023-01-09T23:22:06.516Z,99515.19
2023-01-09T23:24:32.976Z,99525.88
2023-01-09T23:26:59.488Z,99530.63
2023-01-09T23:29:26.882Z,99535.06
2023-01-09T23:31:54.256Z,99540.97
2023-01-09T23:34:20.782Z,99542.22
2023-01-09T23:36:48.212Z,99551.31
2023-01-09T23:39:14.691Z,99556.03
2023-01-09T23:41:41.128Z,99554.44
2023-01-09T23:44:08.507Z,99551.38
2023-01-09T23:46:34.955Z,99552.22
2023-01-09T23:49:01.390Z,99561.69
2023-01-09T23:51:28.789Z,99552.03
2023-01-09T23:53:55.240Z,99552.81
2023-01-09T23:56:22.675Z,99555.59
2023-01-09T23:58:50.060Z,99557.66
